Time,TemperatureF,DewpointF,PressureIn,WindDirection,WindDirectionDegrees,WindSpeedMPH,WindSpeedGustMPH,Humidity,HourlyPrecipIn,Conditions,Clouds,dailyrainin,SoftwareType,DateUTC
2015-04-27 00:02:00,44.2,31.3,25.44,SW,232,0.0,0.0,60,0.00,,,0.00,meteohub,2015-04-27 07:02:00,
2015-04-27 00:07:00,43.9,30.6,25.44,SW,232,0.0,0.0,59,0.00,,,0.00,meteohub,2015-04-27 07:07:00,
2015-04-27 00:13:00,43.5,31.8,25.44,SW,232,0.0,0.0,63,0.00,,,0.00,meteohub,2015-04-27 07:13:00,
2015-04-27 00:18:00,43.2,31.5,25.44,SW,232,0.0,0.0,63,0.00,,,0.00,meteohub,2015-04-27 07:18:00,
2015-04-27 00:23:00,42.6,31.6,25.44,North,11,0.0,0.0,65,0.00,,,0.00,meteohub,2015-04-27 07:23:00,
2015-04-27 00:28:00,43.9,30.6,25.44,WNW,282,0.0,0.0,59,0.00,,,0.00,meteohub,2015-04-27 07:28:00,
2015-04-27 00:33:00,44.2,30.4,25.44,WNW,282,0.0,0.0,58,0.00,,,0.00,meteohub,2015-04-27 07:33:00,
2015-04-27 00:38:00,44.2,30.0,25.44,West,271,0.0,0.0,57,0.00,,,0.00,meteohub,2015-04-27 07:38:00,
2015-04-27 00:43:00,44.8,29.1,25.44,WNW,297,2.0,0.0,54,0.00,,,0.00,meteohub,2015-04-27 07:43:00,
2015-04-27 00:48:00,45.1,28.6,25.44,WNW,297,0.0,3.0,52,0.00,,,0.00,meteohub,2015-04-27 07:48:00,
2015-04-27 00:53:00,45.0,30.2,25.44,WNW,297,0.0,3.0,56,0.00,,,0.00,meteohub,2015-04-27 07:53:00,
2015-04-27 00:58:00,44.1,31.1,25.44,NW,317,0.0,3.0,60,0.00,,,0.00,meteohub,2015-04-27 07:58:00,
2015-04-27 01:03:00,43.3,31.3,25.44,NW,318,0.0,1.0,62,0.00,,,0.00,meteohub,2015-04-27 08:03:00,
2015-04-27 01:08:00,42.6,31.3,25.44,NW,318,0.0,1.0,64,0.00,,,0.00,meteohub,2015-04-27 08:08:00,
2015-04-27 01:13:00,42.3,30.2,25.44,NW,318,0.0,0.0,62,0.00,,,0.00,meteohub,2015-04-27 08:13:00,
2015-04-27 01:18:00,42.3,30.9,25.44,ENE,67,3.0,0.0,64,0.00,,,0.00,meteohub,2015-04-27 08:18:00,
2015-04-27 01:23:00,42.3,31.3,25.44,ENE,67,1.0,0.0,65,0.00,,,0.00,meteohub,2015-04-27 08:23:00,
2015-04-27 01:28:00,42.1,32.0,25.43,ENE,66,1.0,3.0,67,0.00,,,0.00,meteohub,2015-04-27 08:28:00,
2015-04-27 01:33:00,41.2,31.8,25.44,SSW,211,2.0,3.0,69,0.00,,,0.00,meteohub,2015-04-27 08:33:00,
2015-04-27 01:39:00,40.8,31.5,25.44,SSW,200,0.0,2.0,69,0.00,,,0.00,meteohub,2015-04-27 08:39:00,
2015-04-27 01:44:00,40.6,31.3,25.44,SSW,200,0.0,2.0,69,0.00,,,0.00,meteohub,2015-04-27 08:44:00,
2015-04-27 01:49:00,40.3,31.6,25.44,SSW,195,0.0,2.0,71,0.00,,,0.00,meteohub,2015-04-27 08:49:00,
2015-04-27 01:54:00,39.9,31.3,25.44,SSW,193,0.0,2.0,71,0.00,,,0.00,meteohub,2015-04-27 08:54:00,
2015-04-27 01:59:00,39.7,31.1,25.43,SSW,193,0.0,1.0,71,0.00,,,0.00,meteohub,2015-04-27 08:59:00,
2015-04-27 02:04:00,39.6,31.6,25.43,SSW,193,0.0,1.0,73,0.00,,,0.00,meteohub,2015-04-27 09:04:00,
2015-04-27 02:09:00,39.0,31.5,25.43,SSW,193,0.0,1.0,74,0.00,,,0.00,meteohub,2015-04-27 09:09:00,
2015-04-27 02:14:00,38.8,31.6,25.43,SSW,193,0.0,0.0,75,0.00,,,0.00,meteohub,2015-04-27 09:14:00,
2015-04-27 02:19:00,38.7,31.5,25.44,SSW,193,0.0,0.0,75,0.00,,,0.00,meteohub,2015-04-27 09:19:00,
2015-04-27 02:24:00,38.5,31.3,25.44,SSW,193,0.0,0.0,75,0.00,,,0.00,meteohub,2015-04-27 09:24:00,
2015-04-27 02:29:00,38.1,31.3,25.44,SSW,193,0.0,0.0,76,0.00,,,0.00,meteohub,2015-04-27 09:29:00,
2015-04-27 02:34:00,38.1,31.6,25.44,East,83,0.0,0.0,77,0.00,,,0.00,meteohub,2015-04-27 09:34:00,
2015-04-27 02:39:00,37.9,31.5,25.43,East,83,0.0,2.0,77,0.00,,,0.00,meteohub,2015-04-27 09:39:00,
2015-04-27 02:44:00,37.6,31.6,25.44,East,85,0.0,2.0,79,0.00,,,0.00,meteohub,2015-04-27 09:44:00,
2015-04-27 02:49:00,37.6,31.6,25.43,ESE,108,1.0,2.0,79,0.00,,,0.00,meteohub,2015-04-27 09:49:00,
2015-04-27 02:59:00,38.1,31.8,25.44,SSW,212,2.0,2.0,78,0.00,,,0.00,meteohub,2015-04-27 09:59:00,
2015-04-27 03:05:00,38.3,31.6,25.44,SW,235,0.0,2.0,77,0.00,,,0.00,meteohub,2015-04-27 10:05:00,
2015-04-27 03:10:00,38.3,31.6,25.44,SW,214,0.0,2.0,77,0.00,,,0.00,meteohub,2015-04-27 10:10:00,
2015-04-27 03:15:00,38.1,31.3,25.44,SSW,200,0.0,2.0,76,0.00,,,0.00,meteohub,2015-04-27 10:15:00,
2015-04-27 03:20:00,37.9,31.1,25.44,SSW,200,0.0,1.0,76,0.00,,,0.00,meteohub,2015-04-27 10:20:00,
2015-04-27 03:25:00,37.9,31.5,25.44,SSW,194,0.0,1.0,77,0.00,,,0.00,meteohub,2015-04-27 10:25:00,
2015-04-27 03:30:00,37.9,31.5,25.44,SSW,194,0.0,1.0,77,0.00,,,0.00,meteohub,2015-04-27 10:30:00,
2015-04-27 03:35:00,37.9,31.5,25.44,SSW,194,0.0,1.0,77,0.00,,,0.00,meteohub,2015-04-27 10:35:00,
2015-04-27 03:40:00,37.8,31.3,25.44,South,190,1.0,1.0,77,0.00,,,0.00,meteohub,2015-04-27 10:40:00,
2015-04-27 03:45:00,37.6,31.3,25.43,SSW,210,2.0,2.0,78,0.00,,,0.00,meteohub,2015-04-27 10:45:00,
2015-04-27 03:50:00,37.8,31.3,25.43,SW,225,0.0,3.0,77,0.00,,,0.00,meteohub,2015-04-27 10:50:00,
2015-04-27 03:55:00,37.8,31.3,25.43,SSE,154,0.0,4.0,77,0.00,,,0.00,meteohub,2015-04-27 10:55:00,
2015-04-27 04:00:00,37.2,31.3,25.43,SSE,150,0.0,4.0,79,0.00,,,0.00,meteohub,2015-04-27 11:00:00,
2015-04-27 04:05:00,37.0,31.1,25.43,SSE,149,0.0,3.0,79,0.00,,,0.00,meteohub,2015-04-27 11:05:00,
2015-04-27 04:10:00,36.9,31.3,25.43,SSE,149,0.0,2.0,80,0.00,,,0.00,meteohub,2015-04-27 11:10:00,
2015-04-27 04:15:00,36.5,30.9,25.43,SSE,149,0.0,1.0,80,0.00,,,0.00,meteohub,2015-04-27 11:15:00,
2015-04-27 04:20:00,36.3,31.1,25.44,SSE,149,0.0,0.0,81,0.00,,,0.00,meteohub,2015-04-27 11:20:00,
2015-04-27 04:25:00,36.1,30.9,25.44,SSE,149,0.0,0.0,81,0.00,,,0.00,meteohub,2015-04-27 11:25:00,
2015-04-27 04:31:00,36.0,30.9,25.44,SSE,149,0.0,0.0,82,0.00,,,0.00,meteohub,2015-04-27 11:31:00,
2015-04-27 04:36:00,35.8,31.1,25.44,SSE,150,0.0,0.0,83,0.00,,,0.00,meteohub,2015-04-27 11:36:00,
2015-04-27 04:41:00,36.0,31.3,25.44,ESE,109,0.0,2.0,83,0.00,,,0.00,meteohub,2015-04-27 11:41:00,
2015-04-27 04:46:00,36.0,30.9,25.44,ESE,108,0.0,2.0,82,0.00,,,0.00,meteohub,2015-04-27 11:46:00,
2015-04-27 04:51:00,35.8,31.1,25.45,ESE,109,0.0,2.0,83,0.00,,,0.00,meteohub,2015-04-27 11:51:00,
2015-04-27 04:56:00,35.8,31.5,25.44,ESE,108,0.0,2.0,84,0.00,,,0.00,meteohub,2015-04-27 11:56:00,
2015-04-27 05:01:00,36.0,31.3,25.44,SW,233,0.0,2.0,83,0.00,,,0.00,meteohub,2015-04-27 12:01:00,
2015-04-27 05:06:00,36.0,31.3,25.44,SW,233,0.0,1.0,83,0.00,,,0.00,meteohub,2015-04-27 12:06:00,
2015-04-27 05:11:00,36.0,31.3,25.44,SSW,207,0.0,1.0,83,0.00,,,0.00,meteohub,2015-04-27 12:11:00,
2015-04-27 05:16:00,36.0,31.3,25.44,SW,224,0.0,0.0,83,0.00,,,0.00,meteohub,2015-04-27 12:16:00,
2015-04-27 05:21:00,36.0,31.3,25.44,SW,224,0.0,0.0,83,0.00,,,0.00,meteohub,2015-04-27 12:21:00,
2015-04-27 05:26:00,35.8,31.1,25.44,WSW,258,0.0,0.0,83,0.00,,,0.00,meteohub,2015-04-27 12:26:00,
2015-04-27 05:31:00,35.8,31.5,25.45,West,269,0.0,0.0,84,0.00,,,0.00,meteohub,2015-04-27 12:31:00,
2015-04-27 05:36:00,36.0,31.3,25.45,West,269,0.0,1.0,83,0.00,,,0.00,meteohub,2015-04-27 12:36:00,
2015-04-27 05:41:00,36.0,31.3,25.45,West,269,0.0,1.0,83,0.00,,,0.00,meteohub,2015-04-27 12:41:00,
2015-04-27 05:46:00,36.0,30.9,25.45,West,269,0.0,1.0,82,0.00,,,0.00,meteohub,2015-04-27 12:46:00,
2015-04-27 05:52:00,35.6,30.9,25.45,ENE,74,0.0,1.0,83,0.00,,,0.00,meteohub,2015-04-27 12:52:00,
2015-04-27 05:57:00,35.4,31.1,25.45,ENE,74,0.0,1.0,84,0.00,,,0.00,meteohub,2015-04-27 12:57:00,
2015-04-27 06:02:00,35.2,30.9,25.45,ENE,74,0.0,1.0,84,0.00,,,0.00,meteohub,2015-04-27 13:02:00,
2015-04-27 06:07:00,35.2,30.9,25.45,ENE,74,0.0,1.0,84,0.00,,,0.00,meteohub,2015-04-27 13:07:00,
2015-04-27 06:12:00,35.1,30.7,25.45,ENE,74,0.0,0.0,84,0.00,,,0.00,meteohub,2015-04-27 13:12:00,
2015-04-27 06:17:00,34.7,30.7,25.45,ENE,74,0.0,0.0,85,0.00,,,0.00,meteohub,2015-04-27 13:17:00,
2015-04-27 06:22:00,34.7,30.7,25.45,ENE,74,0.0,0.0,85,0.00,,,0.00,meteohub,2015-04-27 13:22:00,
2015-04-27 06:27:00,34.9,31.1,25.45,ENE,74,0.0,0.0,86,0.00,,,0.00,meteohub,2015-04-27 13:27:00,
2015-04-27 06:32:00,35.2,31.5,25.45,ENE,74,0.0,0.0,86,0.00,,,0.00,meteohub,2015-04-27 13:32:00,
2015-04-27 06:37:00,36.0,31.6,25.46,SE,146,0.0,0.0,84,0.00,,,0.00,meteohub,2015-04-27 13:37:00,
2015-04-27 06:42:00,36.7,32.0,25.46,SE,145,0.0,0.0,83,0.00,,,0.00,meteohub,2015-04-27 13:42:00,
2015-04-27 06:47:00,37.4,32.4,25.46,SE,146,0.0,0.0,82,0.00,,,0.00,meteohub,2015-04-27 13:47:00,
2015-04-27 06:52:00,37.8,32.5,25.46,SE,145,0.0,0.0,81,0.00,,,0.00,meteohub,2015-04-27 13:52:00,
2015-04-27 06:57:00,38.3,32.7,25.46,SW,236,0.0,0.0,80,0.00,,,0.00,meteohub,2015-04-27 13:57:00,
2015-04-27 07:02:00,39.7,33.8,25.47,SW,236,0.0,0.0,79,0.00,,,0.00,meteohub,2015-04-27 14:02:00,
2015-04-27 07:07:00,41.9,34.5,25.47,SW,236,0.0,0.0,75,0.00,,,0.00,meteohub,2015-04-27 14:07:00,
2015-04-27 07:12:00,43.2,34.0,25.47,SW,236,0.0,0.0,70,0.00,,,0.00,meteohub,2015-04-27 14:12:00,
2015-04-27 07:17:00,43.7,34.5,25.47,SW,222,0.0,0.0,70,0.00,,,0.00,meteohub,2015-04-27 14:17:00,
2015-04-27 07:22:00,43.3,33.4,25.47,SE,132,0.0,0.0,68,0.00,,,0.00,meteohub,2015-04-27 14:22:00,
2015-04-27 07:27:00,43.5,33.3,25.47,SSE,158,0.0,1.0,67,0.00,,,0.00,meteohub,2015-04-27 14:27:00,
2015-04-27 07:32:00,44.1,33.8,25.47,SSE,158,0.0,1.0,67,0.00,,,0.00,meteohub,2015-04-27 14:32:00,
2015-04-27 07:37:00,44.2,33.6,25.47,South,172,0.0,1.0,66,0.00,,,0.00,meteohub,2015-04-27 14:37:00,
2015-04-27 07:42:00,43.9,32.9,25.47,South,173,2.0,2.0,65,0.00,,,0.00,meteohub,2015-04-27 14:42:00,
2015-04-27 07:47:00,43.5,33.6,25.47,SSE,153,1.0,3.0,68,0.00,,,0.00,meteohub,2015-04-27 14:47:00,
2015-04-27 07:52:00,43.9,34.0,25.47,South,172,0.0,3.0,68,0.00,,,0.00,meteohub,2015-04-27 14:52:00,
2015-04-27 07:57:00,43.9,32.5,25.47,SSW,204,0.0,3.0,64,0.00,,,0.00,meteohub,2015-04-27 14:57:00,
2015-04-27 08:02:00,44.1,33.1,25.48,SSW,204,0.0,1.0,65,0.00,,,0.00,meteohub,2015-04-27 15:02:00,
2015-04-27 08:07:00,45.1,33.3,25.48,SSW,204,0.0,0.0,63,0.00,,,0.00,meteohub,2015-04-27 15:07:00,
2015-04-27 08:12:00,46.8,34.0,25.47,ENE,77,0.0,0.0,61,0.00,,,0.00,meteohub,2015-04-27 15:12:00,
2015-04-27 08:17:00,47.3,33.6,25.48,ENE,75,0.0,0.0,59,0.00,,,0.00,meteohub,2015-04-27 15:17:00,
2015-04-27 08:22:00,48.0,33.4,25.47,ENE,68,1.0,0.0,57,0.00,,,0.00,meteohub,2015-04-27 15:22:00,
2015-04-27 08:27:00,48.6,32.7,25.47,SSE,162,0.0,2.0,54,0.00,,,0.00,meteohub,2015-04-27 15:27:00,
2015-04-27 08:32:00,48.9,32.5,25.47,ENE,75,0.0,2.0,53,0.00,,,0.00,meteohub,2015-04-27 15:32:00,
2015-04-27 08:37:00,49.3,32.9,25.47,ENE,75,0.0,2.0,53,0.00,,,0.00,meteohub,2015-04-27 15:37:00,
2015-04-27 08:42:00,49.6,33.3,25.47,NE,41,0.0,3.0,53,0.00,,,0.00,meteohub,2015-04-27 15:42:00,
2015-04-27 08:47:00,49.8,32.9,25.48,NNE,22,3.0,3.0,52,0.00,,,0.00,meteohub,2015-04-27 15:47:00,
2015-04-27 08:52:00,50.5,32.5,25.48,NNE,16,1.0,4.0,50,0.00,,,0.00,meteohub,2015-04-27 15:52:00,
2015-04-27 08:57:00,50.9,31.5,25.48,WNW,283,2.0,5.0,47,0.00,,,0.00,meteohub,2015-04-27 15:57:00,
2015-04-27 09:02:00,51.3,31.1,25.48,ENE,57,5.0,6.0,46,0.00,,,0.00,meteohub,2015-04-27 16:02:00,
2015-04-27 09:07:00,51.4,31.3,25.48,NNE,16,3.0,7.0,46,0.00,,,0.00,meteohub,2015-04-27 16:07:00,
2015-04-27 09:12:00,52.2,32.5,25.48,NE,37,3.0,7.0,47,0.00,,,0.00,meteohub,2015-04-27 16:12:00,
2015-04-27 09:17:00,52.2,30.9,25.47,North,359,2.0,7.0,44,0.00,,,0.00,meteohub,2015-04-27 16:17:00,
2015-04-27 09:22:00,52.3,32.2,25.47,NNW,342,1.0,6.0,46,0.00,,,0.00,meteohub,2015-04-27 16:22:00,
2015-04-27 09:27:00,53.1,32.4,25.47,NW,307,1.0,6.0,45,0.00,,,0.00,meteohub,2015-04-27 16:27:00,
2015-04-27 09:32:00,53.6,32.7,25.47,North,1,5.0,6.0,45,0.00,,,0.00,meteohub,2015-04-27 16:32:00,
2015-04-27 09:37:00,53.8,31.3,25.47,NE,40,5.0,7.0,42,0.00,,,0.00,meteohub,2015-04-27 16:37:00,
2015-04-27 09:42:00,54.0,30.7,25.47,ENE,57,5.0,9.0,41,0.00,,,0.00,meteohub,2015-04-27 16:42:00,
2015-04-27 09:47:00,54.9,30.9,25.47,NNW,333,6.0,10.0,40,0.00,,,0.00,meteohub,2015-04-27 16:47:00,
2015-04-27 09:52:00,55.6,30.4,25.47,NE,37,9.0,11.0,38,0.00,,,0.00,meteohub,2015-04-27 16:52:00,
2015-04-27 09:57:00,55.6,28.4,25.46,NE,50,7.0,12.0,35,0.00,,,0.00,meteohub,2015-04-27 16:57:00,
2015-04-27 10:02:00,55.9,30.0,25.46,NE,53,8.0,15.0,37,0.00,,,0.00,meteohub,2015-04-27 17:02:00,
2015-04-27 10:07:00,55.9,29.3,25.46,NE,35,11.0,15.0,36,0.00,,,0.00,meteohub,2015-04-27 17:07:00,
2015-04-27 10:12:00,56.1,29.5,25.47,ENE,67,6.0,15.0,36,0.00,,,0.00,meteohub,2015-04-27 17:12:00,
2015-04-27 10:17:00,56.7,30.0,25.46,NE,49,4.0,15.0,36,0.00,,,0.00,meteohub,2015-04-27 17:17:00,
2015-04-27 10:22:00,56.8,30.2,25.47,NNE,20,4.0,15.0,36,0.00,,,0.00,meteohub,2015-04-27 17:22:00,
2015-04-27 10:27:00,57.6,30.0,25.46,NNE,23,6.0,14.0,35,0.00,,,0.00,meteohub,2015-04-27 17:27:00,
2015-04-27 10:32:00,57.7,30.2,25.46,NNE,23,4.0,14.0,35,0.00,,,0.00,meteohub,2015-04-27 17:32:00,
2015-04-27 10:37:00,57.9,28.9,25.46,ENE,75,8.0,14.0,33,0.00,,,0.00,meteohub,2015-04-27 17:37:00,
2015-04-27 10:42:00,57.7,29.5,25.46,NNE,22,9.0,14.0,34,0.00,,,0.00,meteohub,2015-04-27 17:42:00,
2015-04-27 10:47:00,58.3,30.0,25.46,East,84,7.0,14.0,34,0.00,,,0.00,meteohub,2015-04-27 17:47:00,
2015-04-27 10:52:00,58.8,29.8,25.46,NE,37,7.0,13.0,33,0.00,,,0.00,meteohub,2015-04-27 17:52:00,
2015-04-27 10:57:00,59.0,29.1,25.46,ENE,67,5.0,12.0,32,0.00,,,0.00,meteohub,2015-04-27 17:57:00,
2015-04-27 11:02:00,59.2,30.0,25.45,NE,50,1.0,11.0,33,0.00,,,0.00,meteohub,2015-04-27 18:02:00,
2015-04-27 11:07:00,59.5,28.9,25.45,ENE,63,5.0,11.0,31,0.00,,,0.00,meteohub,2015-04-27 18:07:00,
2015-04-27 11:12:00,59.9,30.0,25.45,ENE,63,5.0,11.0,32,0.00,,,0.00,meteohub,2015-04-27 18:12:00,
2015-04-27 11:17:00,60.1,30.2,25.45,NNE,19,5.0,11.0,32,0.00,,,0.00,meteohub,2015-04-27 18:17:00,
2015-04-27 11:22:00,59.9,29.1,25.45,NE,43,9.0,12.0,31,0.00,,,0.00,meteohub,2015-04-27 18:22:00,
2015-04-27 11:27:00,60.3,30.2,25.45,North,8,4.0,14.0,32,0.00,,,0.00,meteohub,2015-04-27 18:27:00,
2015-04-27 11:32:00,60.3,30.2,25.44,ENE,72,7.0,14.0,32,0.00,,,0.00,meteohub,2015-04-27 18:32:00,
2015-04-27 11:37:00,60.3,28.8,25.45,NE,47,8.0,14.0,30,0.00,,,0.00,meteohub,2015-04-27 18:37:00,
2015-04-27 11:42:00,60.3,27.9,25.44,NNE,27,5.0,14.0,29,0.00,,,0.00,meteohub,2015-04-27 18:42:00,
2015-04-27 11:47:00,60.6,28.9,25.44,NNE,26,2.0,14.0,30,0.00,,,0.00,meteohub,2015-04-27 18:47:00,
2015-04-27 11:52:00,61.3,29.7,25.44,NNE,33,8.0,14.0,30,0.00,,,0.00,meteohub,2015-04-27 18:52:00,
2015-04-27 11:57:00,61.0,27.7,25.44,East,83,5.0,16.0,28,0.00,,,0.00,meteohub,2015-04-27 18:57:00,
2015-04-27 12:02:00,61.2,29.5,25.44,NNE,25,11.0,16.0,30,0.00,,,0.00,meteohub,2015-04-27 19:02:00,
2015-04-27 12:07:00,61.0,29.3,25.44,NNW,347,3.0,16.0,30,0.00,,,0.00,meteohub,2015-04-27 19:07:00,
2015-04-27 12:12:00,61.5,28.0,25.44,NE,54,5.0,14.0,28,0.00,,,0.00,meteohub,2015-04-27 19:12:00,
2015-04-27 12:17:00,61.5,28.9,25.44,NE,36,11.0,13.0,29,0.00,,,0.00,meteohub,2015-04-27 19:17:00,
2015-04-27 12:22:00,61.7,28.2,25.44,North,359,6.0,17.0,28,0.00,,,0.00,meteohub,2015-04-27 19:22:00,
2015-04-27 12:27:00,62.1,29.5,25.44,NE,39,6.0,17.0,29,0.00,,,0.00,meteohub,2015-04-27 19:27:00,
2015-04-27 12:32:00,62.2,29.7,25.43,East,82,7.0,15.0,29,0.00,,,0.00,meteohub,2015-04-27 19:32:00,
2015-04-27 12:37:00,62.1,28.6,25.43,NE,38,6.0,15.0,28,0.00,,,0.00,meteohub,2015-04-27 19:37:00,
2015-04-27 12:42:00,62.2,28.8,25.43,NNE,19,6.0,17.0,28,0.00,,,0.00,meteohub,2015-04-27 19:42:00,
2015-04-27 12:47:00,62.4,28.9,25.43,NE,44,7.0,17.0,28,0.00,,,0.00,meteohub,2015-04-27 19:47:00,
2015-04-27 12:52:00,62.8,29.1,25.43,NE,49,10.0,17.0,28,0.00,,,0.00,meteohub,2015-04-27 19:52:00,
2015-04-27 12:57:00,62.8,28.2,25.42,NNE,26,5.0,17.0,27,0.00,,,0.00,meteohub,2015-04-27 19:57:00,
2015-04-27 13:02:00,63.0,29.3,25.42,North,8,9.0,17.0,28,0.00,,,0.00,meteohub,2015-04-27 20:02:00,
2015-04-27 13:07:00,63.0,29.3,25.42,NE,49,8.0,16.0,28,0.00,,,0.00,meteohub,2015-04-27 20:07:00,
2015-04-27 13:12:00,63.0,28.4,25.42,NE,40,14.0,16.0,27,0.00,,,0.00,meteohub,2015-04-27 20:12:00,
2015-04-27 13:17:00,63.3,29.7,25.42,NNE,32,3.0,15.0,28,0.00,,,0.00,meteohub,2015-04-27 20:17:00,
2015-04-27 13:22:00,63.7,29.1,25.42,NW,314,7.0,15.0,27,0.00,,,0.00,meteohub,2015-04-27 20:22:00,
2015-04-27 13:27:00,63.7,29.1,25.41,NE,44,7.0,15.0,27,0.00,,,0.00,meteohub,2015-04-27 20:27:00,
2015-04-27 13:32:00,63.9,27.3,25.41,NNE,33,6.0,15.0,25,0.00,,,0.00,meteohub,2015-04-27 20:32:00,
2015-04-27 13:37:00,63.9,29.3,25.41,ENE,67,5.0,15.0,27,0.00,,,0.00,meteohub,2015-04-27 20:37:00,
2015-04-27 13:42:00,64.4,28.8,25.41,NE,43,11.0,14.0,26,0.00,,,0.00,meteohub,2015-04-27 20:42:00,
2015-04-27 13:47:00,64.6,28.9,25.40,NNE,15,6.0,15.0,26,0.00,,,0.00,meteohub,2015-04-27 20:47:00,
2015-04-27 13:52:00,64.4,28.8,25.41,NNE,22,4.0,17.0,26,0.00,,,0.00,meteohub,2015-04-27 20:52:00,
2015-04-27 13:57:00,64.2,28.6,25.41,North,357,12.0,17.0,26,0.00,,,0.00,meteohub,2015-04-27 20:57:00,
2015-04-27 14:02:00,64.6,28.9,25.40,NE,45,5.0,17.0,26,0.00,,,0.00,meteohub,2015-04-27 21:02:00,
2015-04-27 14:07:00,64.8,29.1,25.40,North,355,9.0,15.0,26,0.00,,,0.00,meteohub,2015-04-27 21:07:00,
2015-04-27 14:12:00,65.1,29.3,25.40,NNE,26,6.0,14.0,26,0.00,,,0.00,meteohub,2015-04-27 21:12:00,
2015-04-27 14:17:00,65.1,29.3,25.40,ENE,63,12.0,16.0,26,0.00,,,0.00,meteohub,2015-04-27 21:17:00,
2015-04-27 14:22:00,64.9,28.2,25.39,East,89,6.0,16.0,25,0.00,,,0.00,meteohub,2015-04-27 21:22:00,
2015-04-27 14:27:00,65.5,28.8,25.39,NNE,32,8.0,16.0,25,0.00,,,0.00,meteohub,2015-04-27 21:27:00,
2015-04-27 14:32:00,65.7,28.9,25.39,NE,36,8.0,17.0,25,0.00,,,0.00,meteohub,2015-04-27 21:32:00,
2015-04-27 14:37:00,65.5,28.8,25.39,NNE,27,11.0,17.0,25,0.00,,,0.00,meteohub,2015-04-27 21:37:00,
2015-04-27 14:42:00,65.8,30.0,25.39,NNE,27,6.0,17.0,26,0.00,,,0.00,meteohub,2015-04-27 21:42:00,
2015-04-27 14:47:00,66.4,28.4,25.39,North,5,9.0,17.0,24,0.00,,,0.00,meteohub,2015-04-27 21:47:00,
2015-04-27 14:52:00,66.0,28.2,25.39,NNE,19,10.0,17.0,24,0.00,,,0.00,meteohub,2015-04-27 21:52:00,
2015-04-27 14:57:00,65.7,27.9,25.39,NE,46,8.0,17.0,24,0.00,,,0.00,meteohub,2015-04-27 21:57:00,
2015-04-27 15:02:00,65.7,28.9,25.38,NE,49,7.0,17.0,25,0.00,,,0.00,meteohub,2015-04-27 22:02:00,
2015-04-27 15:07:00,66.0,28.2,25.38,North,6,7.0,19.0,24,0.00,,,0.00,meteohub,2015-04-27 22:07:00,
2015-04-27 15:12:00,66.2,27.3,25.38,NE,53,11.0,19.0,23,0.00,,,0.00,meteohub,2015-04-27 22:12:00,
2015-04-27 15:17:00,66.2,27.3,25.38,NE,46,4.0,15.0,23,0.00,,,0.00,meteohub,2015-04-27 22:17:00,
2015-04-27 15:22:00,66.4,28.4,25.38,NE,44,8.0,15.0,24,0.00,,,0.00,meteohub,2015-04-27 22:22:00,
2015-04-27 15:27:00,66.0,28.2,25.38,NE,36,7.0,15.0,24,0.00,,,0.00,meteohub,2015-04-27 22:27:00,
2015-04-27 15:32:00,66.0,27.1,25.38,ESE,113,8.0,15.0,23,0.00,,,0.00,meteohub,2015-04-27 22:32:00,
2015-04-27 15:37:00,66.6,27.7,25.37,NNE,13,12.0,16.0,23,0.00,,,0.00,meteohub,2015-04-27 22:37:00,
2015-04-27 15:42:00,66.4,27.5,25.37,ENE,67,5.0,16.0,23,0.00,,,0.00,meteohub,2015-04-27 22:42:00,
2015-04-27 15:47:00,66.9,27.9,25.37,ENE,70,7.0,14.0,23,0.00,,,0.00,meteohub,2015-04-27 22:47:00,
2015-04-27 15:52:00,66.7,27.7,25.37,NE,45,7.0,14.0,23,0.00,,,0.00,meteohub,2015-04-27 22:52:00,
2015-04-27 15:57:00,66.7,27.7,25.37,NW,326,5.0,14.0,23,0.00,,,0.00,meteohub,2015-04-27 22:57:00,
2015-04-27 16:02:00,66.7,26.6,25.37,NE,39,5.0,14.0,22,0.00,,,0.00,meteohub,2015-04-27 23:02:00,
2015-04-27 16:07:00,66.4,27.5,25.37,NE,47,11.0,17.0,23,0.00,,,0.00,meteohub,2015-04-27 23:07:00,
2015-04-27 16:12:00,66.6,26.6,25.37,NE,36,10.0,17.0,22,0.00,,,0.00,meteohub,2015-04-27 23:12:00,
2015-04-27 16:17:00,66.6,26.6,25.36,NE,40,9.0,17.0,22,0.00,,,0.00,meteohub,2015-04-27 23:17:00,
2015-04-27 16:22:00,66.4,27.5,25.36,NE,49,3.0,17.0,23,0.00,,,0.00,meteohub,2015-04-27 23:22:00,
2015-04-27 16:27:00,66.9,26.8,25.36,NE,34,10.0,17.0,22,0.00,,,0.00,meteohub,2015-04-27 23:27:00,
2015-04-27 16:32:00,67.1,27.0,25.36,NNE,27,11.0,17.0,22,0.00,,,0.00,meteohub,2015-04-27 23:32:00,
2015-04-27 16:37:00,66.9,25.7,25.36,NNE,13,11.0,20.0,21,0.00,,,0.00,meteohub,2015-04-27 23:37:00,
2015-04-27 16:42:00,66.7,25.5,25.36,NNE,20,12.0,20.0,21,0.00,,,0.00,meteohub,2015-04-27 23:42:00,
2015-04-27 16:47:00,66.7,25.5,25.36,NNE,27,6.0,20.0,21,0.00,,,0.00,meteohub,2015-04-27 23:47:00,
2015-04-27 16:52:00,66.9,25.7,25.36,NE,53,5.0,16.0,21,0.00,,,0.00,meteohub,2015-04-27 23:52:00,
2015-04-27 16:57:00,66.7,26.6,25.36,ENE,75,7.0,16.0,22,0.00,,,0.00,meteohub,2015-04-27 23:57:00,
2015-04-27 17:02:00,67.3,26.1,25.36,NE,46,7.0,15.0,21,0.00,,,0.00,meteohub,2015-04-28 00:02:00,
2015-04-27 17:07:00,66.9,25.7,25.36,NE,37,6.0,15.0,21,0.00,,,0.00,meteohub,2015-04-28 00:07:00,
2015-04-27 17:12:00,66.7,24.4,25.36,NNE,20,7.0,15.0,20,0.00,,,0.00,meteohub,2015-04-28 00:12:00,
2015-04-27 17:17:00,66.7,25.5,25.36,NNE,15,9.0,15.0,21,0.00,,,0.00,meteohub,2015-04-28 00:17:00,
2015-04-27 17:22:00,66.7,24.4,25.36,NE,49,3.0,15.0,20,0.00,,,0.00,meteohub,2015-04-28 00:22:00,
2015-04-27 17:27:00,66.7,24.4,25.36,ENE,60,6.0,15.0,20,0.00,,,0.00,meteohub,2015-04-28 00:27:00,
2015-04-27 17:32:00,66.7,25.5,25.36,NE,37,4.0,15.0,21,0.00,,,0.00,meteohub,2015-04-28 00:32:00,
2015-04-27 17:37:00,66.7,25.5,25.36,NNE,32,9.0,15.0,21,0.00,,,0.00,meteohub,2015-04-28 00:37:00,
2015-04-27 17:42:00,66.7,25.5,25.36,NNE,32,5.0,14.0,21,0.00,,,0.00,meteohub,2015-04-28 00:42:00,
2015-04-27 17:47:00,66.6,25.3,25.36,NE,43,9.0,14.0,21,0.00,,,0.00,meteohub,2015-04-28 00:47:00,
2015-04-27 17:52:00,66.6,24.3,25.36,NE,38,5.0,14.0,20,0.00,,,0.00,meteohub,2015-04-28 00:52:00,
2015-04-27 17:57:00,66.6,24.3,25.35,NE,51,5.0,14.0,20,0.00,,,0.00,meteohub,2015-04-28 00:57:00,
2015-04-27 18:02:00,66.4,24.1,25.35,NE,36,5.0,14.0,20,0.00,,,0.00,meteohub,2015-04-28 01:02:00,
2015-04-27 18:07:00,66.2,23.9,25.35,ENE,58,7.0,14.0,20,0.00,,,0.00,meteohub,2015-04-28 01:07:00,
2015-04-27 18:12:00,66.0,23.7,25.35,North,4,6.0,14.0,20,0.00,,,0.00,meteohub,2015-04-28 01:12:00,
2015-04-27 18:17:00,65.8,24.8,25.35,NE,56,10.0,14.0,21,0.00,,,0.00,meteohub,2015-04-28 01:17:00,
2015-04-27 18:22:00,65.7,24.6,25.35,ENE,61,8.0,14.0,21,0.00,,,0.00,meteohub,2015-04-28 01:22:00,
2015-04-27 18:27:00,65.7,25.7,25.35,North,357,5.0,15.0,22,0.00,,,0.00,meteohub,2015-04-28 01:27:00,
2015-04-27 18:32:00,65.7,25.7,25.35,NE,46,5.0,15.0,22,0.00,,,0.00,meteohub,2015-04-28 01:32:00,
2015-04-27 18:37:00,65.5,24.4,25.35,NE,36,7.0,15.0,21,0.00,,,0.00,meteohub,2015-04-28 01:37:00,
2015-04-27 18:42:00,65.1,24.3,25.35,ENE,74,10.0,15.0,21,0.00,,,0.00,meteohub,2015-04-28 01:42:00,
2015-04-27 18:47:00,65.1,24.3,25.35,NNE,20,11.0,14.0,21,0.00,,,0.00,meteohub,2015-04-28 01:47:00,
2015-04-27 18:52:00,64.9,25.2,25.35,East,86,6.0,14.0,22,0.00,,,0.00,meteohub,2015-04-28 01:52:00,
2015-04-27 18:57:00,64.9,25.2,25.35,ENE,65,4.0,15.0,22,0.00,,,0.00,meteohub,2015-04-28 01:57:00,
2015-04-27 19:02:00,64.8,25.0,25.35,ESE,113,6.0,15.0,22,0.00,,,0.00,meteohub,2015-04-28 02:02:00,
2015-04-27 19:07:00,64.0,24.4,25.35,ENE,69,6.0,11.0,22,0.00,,,0.00,meteohub,2015-04-28 02:07:00,
2015-04-27 19:12:00,63.5,23.9,25.35,NNE,29,7.0,11.0,22,0.00,,,0.00,meteohub,2015-04-28 02:12:00,
2015-04-27 19:17:00,63.0,24.6,25.35,ENE,64,5.0,15.0,23,0.00,,,0.00,meteohub,2015-04-28 02:17:00,
2015-04-27 19:22:00,62.8,25.5,25.35,NE,44,7.0,15.0,24,0.00,,,0.00,meteohub,2015-04-28 02:22:00,
2015-04-27 19:27:00,62.4,25.2,25.35,East,84,5.0,15.0,24,0.00,,,0.00,meteohub,2015-04-28 02:27:00,
2015-04-27 19:32:00,62.1,24.8,25.35,East,89,9.0,11.0,24,0.00,,,0.00,meteohub,2015-04-28 02:32:00,
2015-04-27 19:37:00,62.1,24.8,25.35,ENE,74,6.0,11.0,24,0.00,,,0.00,meteohub,2015-04-28 02:37:00,
2015-04-27 19:42:00,61.9,24.6,25.35,NNE,30,8.0,12.0,24,0.00,,,0.00,meteohub,2015-04-28 02:42:00,
2015-04-27 19:47:00,61.5,24.4,25.35,North,9,2.0,12.0,24,0.00,,,0.00,meteohub,2015-04-28 02:47:00,
2015-04-27 19:52:00,61.3,25.2,25.36,ENE,70,5.0,12.0,25,0.00,,,0.00,meteohub,2015-04-28 02:52:00,
2015-04-27 19:57:00,61.3,24.3,25.36,NE,40,4.0,9.0,24,0.00,,,0.00,meteohub,2015-04-28 02:57:00,
2015-04-27 20:02:00,61.2,25.0,25.36,NNE,13,5.0,13.0,25,0.00,,,0.00,meteohub,2015-04-28 03:02:00,
2015-04-27 20:07:00,61.2,25.0,25.36,NNE,16,3.0,13.0,25,0.00,,,0.00,meteohub,2015-04-28 03:07:00,
2015-04-27 20:12:00,61.0,25.0,25.36,NE,44,4.0,10.0,25,0.00,,,0.00,meteohub,2015-04-28 03:12:00,
2015-04-27 20:17:00,60.6,24.6,25.36,West,259,1.0,10.0,25,0.00,,,0.00,meteohub,2015-04-28 03:17:00,
2015-04-27 20:22:00,60.6,24.6,25.36,ENE,60,3.0,8.0,25,0.00,,,0.00,meteohub,2015-04-28 03:22:00,
2015-04-27 20:27:00,60.1,26.1,25.36,NNW,348,0.0,8.0,27,0.00,,,0.00,meteohub,2015-04-28 03:27:00,
2015-04-27 20:32:00,59.0,25.9,25.37,NNW,338,1.0,8.0,28,0.00,,,0.00,meteohub,2015-04-28 03:32:00,
2015-04-27 20:37:00,58.3,27.0,25.37,NNW,335,3.0,5.0,30,0.00,,,0.00,meteohub,2015-04-28 03:37:00,
2015-04-27 20:42:00,57.9,26.6,25.37,North,8,2.0,4.0,30,0.00,,,0.00,meteohub,2015-04-28 03:42:00,
2015-04-27 20:47:00,57.9,25.9,25.37,NNW,335,2.0,5.0,29,0.00,,,0.00,meteohub,2015-04-28 03:47:00,
2015-04-27 20:52:00,57.9,25.9,25.37,North,4,3.0,6.0,29,0.00,,,0.00,meteohub,2015-04-28 03:52:00,
2015-04-27 20:57:00,57.9,26.6,25.37,NNW,338,1.0,7.0,30,0.00,,,0.00,meteohub,2015-04-28 03:57:00,
2015-04-27 21:02:00,57.7,26.4,25.38,North,8,2.0,7.0,30,0.00,,,0.00,meteohub,2015-04-28 04:02:00,
2015-04-27 21:07:00,57.7,26.4,25.38,NE,49,4.0,7.0,30,0.00,,,0.00,meteohub,2015-04-28 04:07:00,
2015-04-27 21:12:00,57.7,26.4,25.38,NNE,26,2.0,6.0,30,0.00,,,0.00,meteohub,2015-04-28 04:12:00,
2015-04-27 21:17:00,57.6,26.4,25.38,NE,39,2.0,6.0,30,0.00,,,0.00,meteohub,2015-04-28 04:17:00,
2015-04-27 21:22:00,57.2,26.8,25.38,North,5,2.0,6.0,31,0.00,,,0.00,meteohub,2015-04-28 04:22:00,
2015-04-27 21:27:00,56.8,27.3,25.38,NNE,19,0.0,4.0,32,0.00,,,0.00,meteohub,2015-04-28 04:27:00,
2015-04-27 21:32:00,56.1,26.6,25.39,NNE,19,1.0,4.0,32,0.00,,,0.00,meteohub,2015-04-28 04:32:00,
2015-04-27 21:37:00,55.9,26.4,25.38,NNE,20,1.0,3.0,32,0.00,,,0.00,meteohub,2015-04-28 04:37:00,
2015-04-27 21:42:00,55.2,27.3,25.38,North,0,1.0,2.0,34,0.00,,,0.00,meteohub,2015-04-28 04:42:00,
2015-04-27 21:47:00,55.2,27.3,25.38,ENE,60,2.0,3.0,34,0.00,,,0.00,meteohub,2015-04-28 04:47:00,
2015-04-27 21:52:00,55.2,27.3,25.39,NE,43,2.0,3.0,34,0.00,,,0.00,meteohub,2015-04-28 04:52:00,
2015-04-27 21:57:00,54.9,27.0,25.39,NE,37,2.0,4.0,34,0.00,,,0.00,meteohub,2015-04-28 04:57:00,
2015-04-27 22:02:00,54.3,27.9,25.39,NE,37,2.0,4.0,36,0.00,,,0.00,meteohub,2015-04-28 05:02:00,
2015-04-27 22:07:00,53.8,27.5,25.39,NNE,22,1.0,3.0,36,0.00,,,0.00,meteohub,2015-04-28 05:07:00,
2015-04-27 22:12:00,53.4,27.9,25.39,NNE,13,1.0,3.0,37,0.00,,,0.00,meteohub,2015-04-28 05:12:00,
2015-04-27 22:17:00,52.9,28.0,25.39,North,1,0.0,3.0,38,0.00,,,0.00,meteohub,2015-04-28 05:17:00,
2015-04-27 22:22:00,52.5,27.7,25.39,North,1,0.0,3.0,38,0.00,,,0.00,meteohub,2015-04-28 05:22:00,
2015-04-27 22:27:00,52.2,27.3,25.39,North,1,0.0,2.0,38,0.00,,,0.00,meteohub,2015-04-28 05:27:00,
2015-04-27 22:32:00,52.0,27.1,25.38,North,1,0.0,1.0,38,0.00,,,0.00,meteohub,2015-04-28 05:32:00,
2015-04-27 22:37:00,52.2,27.9,25.38,NNE,30,0.0,1.0,39,0.00,,,0.00,meteohub,2015-04-28 05:37:00,
2015-04-27 22:42:00,52.2,28.6,25.39,NNE,30,0.0,1.0,40,0.00,,,0.00,meteohub,2015-04-28 05:42:00,
2015-04-27 22:47:00,51.3,30.0,25.39,NNE,30,0.0,0.0,44,0.00,,,0.00,meteohub,2015-04-28 05:47:00,